Latest Weather Observations for Lockhart River

IDQ60801

Issued at 1:32 am EST Monday 20 April 2015 (issued every 30 minutes, with the page automatically refreshed every 10 minutes)

About weather observations | Map of weather stations | Latest weather observations for QLD | Other Formats
Station Details ID: 028008 Name: LOCKHART RIVER AIRPORT Lat: -12.79 Lon: 143.30 Height: 18.5 m
Data from the previous 72 hours. | See also: Recent months at Lockhart River
Date/Time
EST
Temp
°C
App
Temp
°C
Dew
Point
Rel
Hum
%
Delta-T
°C
Wind Press
QNH
hPa
Press
MSL
hPa
Rain
since 9 am
mm
Dir
 
Spd
km/h
Gust
km/h
Spd
kts
Gust
kts
20/01:30am 26.5 29.3 24.3 88 1.5 SE 17 26 9 14 1011.4 - 3.0
20/01:00am 26.4 29.8 24.6 90 1.2 SE 15 20 8 11 1011.8 - 3.0
20/12:30am 26.4 30.1 24.6 90 1.2 SE 13 17 7 9 1012.2 - 3.0
20/12:21am 26.4 29.4 24.6 90 1.2 SE 17 20 9 11 1012.3 - 3.0
20/12:00am 26.4 29.8 24.6 90 1.2 SE 15 20 8 11 1012.6 1012.5 3.0
 
Date/Time
EST
Temp
°C
App
Temp
°C
Dew
Point
Rel
Hum
%
Delta-T
°C
Wind Press
QNH
hPa
Press
MSL
hPa
Rain
since 9 am
mm
Dir
 
Spd
km/h
Gust
km/h
Spd
kts
Gust
kts
19/11:30pm 26.4 29.8 24.6 90 1.2 SE 15 20 8 11 1012.7 - 3.0
19/11:00pm 26.4 28.9 24.4 89 1.4 ESE 19 28 10 15 1012.8 - 3.0
19/10:51pm 26.4 29.0 24.6 90 1.2 SE 19 28 10 15 1012.8 - 3.0
19/10:30pm 26.2 29.3 24.8 92 1.0 ESE 17 22 9 12 1012.6 - 3.0
19/10:27pm 26.2 29.4 25.0 93 0.8 ESE 17 22 9 12 1012.6 - 3.0
19/10:00pm 26.2 29.8 25.0 93 0.8 ESE 15 20 8 11 1012.7 - 3.0
19/09:30pm 26.0 29.6 25.0 94 0.7 ESE 15 20 8 11 1012.7 - 3.0
19/09:23pm 25.9 29.4 24.9 94 0.7 SE 15 19 8 10 1012.7 - 3.0
19/09:10pm 26.0 29.1 24.8 93 0.8 ESE 17 26 9 14 1012.5 - 3.0
19/09:00pm 26.0 29.2 25.0 94 0.7 SE 17 22 9 12 1012.3 1012.2 2.8
19/08:54pm 26.0 29.2 25.0 94 0.7 ESE 17 24 9 13 1012.2 - 2.8
19/08:30pm 26.3 30.0 24.5 90 1.2 ESE 13 20 7 11 1012.0 - 2.0
19/08:25pm 26.7 31.1 24.5 88 1.5 SE 9 13 5 7 1012.0 - 1.4
19/08:00pm 27.1 30.0 24.4 85 1.9 SE 17 22 9 12 1011.6 - 0.2
19/07:54pm 27.1 30.0 24.4 85 1.9 SE 17 24 9 13 1011.5 - 0.2
19/07:30pm 26.9 30.1 24.4 86 1.7 SE 15 19 8 10 1011.0 - 0.2
19/07:24pm 26.9 30.1 24.4 86 1.7 SE 15 22 8 12 1010.9 - 0.2
19/07:00pm 27.0 29.2 24.3 85 1.9 ESE 20 28 11 15 1010.7 - 0.2
19/06:30pm 26.9 30.4 24.2 85 1.9 SE 13 19 7 10 1010.4 - 0.2
19/06:00pm 27.3 28.8 23.7 81 2.5 SE 22 33 12 18 1010.3 1010.2 0.2
19/05:30pm 27.7 29.9 23.9 80 2.6 SE 19 26 10 14 1010.3 - 0.2
19/05:00pm 28.0 29.4 23.6 77 3.0 ESE 22 33 12 18 1010.2 - 0.2
19/04:30pm 28.3 30.2 23.7 76 3.2 ESE 20 32 11 17 1010.2 - 0.2
19/04:00pm 29.5 31.3 24.8 76 3.3 SE 24 33 13 18 1010.1 - 0.2
19/03:30pm 28.4 29.3 24.0 77 3.0 SE 26 39 14 21 1010.2 - 0.2
19/03:00pm 28.8 31.5 24.1 76 3.3 ESE 17 22 9 12 1010.5 1010.4 0.2
19/02:30pm 28.9 31.1 24.2 76 3.3 ESE 20 28 11 15 1010.9 - 0.2
19/02:00pm 29.0 31.0 23.9 74 3.5 E 20 32 11 17 1011.1 - 0.2
19/01:30pm 29.1 30.4 24.0 74 3.5 ESE 24 35 13 19 1011.5 - 0.2
19/01:00pm 29.3 31.7 24.6 76 3.3 ESE 20 32 11 17 1011.6 - 0.2
19/12:30pm 28.7 30.9 24.9 80 2.7 E 22 32 12 17 1012.1 - 0.2
19/12:00pm 28.7 30.3 24.5 78 2.9 ESE 24 35 13 19 1012.5 1012.4 0.2
19/11:36am 28.7 30.7 24.5 78 2.9 E 22 35 12 19 1012.9 - 0.2
19/11:30am 29.1 31.7 24.9 78 2.9 E 20 33 11 18 1013.0 - 0.2
19/11:00am 28.6 31.4 25.0 81 2.5 ESE 19 26 10 14 1013.3 - 0.2
19/10:59am 28.7 31.6 25.1 81 2.5 ESE 19 28 10 15 1013.3 - 0.2
19/10:30am 28.6 31.3 24.8 80 2.7 ESE 19 28 10 15 1013.4 - 0.2
19/10:00am 27.9 30.7 24.3 81 2.5 ESE 17 26 9 14 1013.4 - 0.0
19/09:51am 27.8 30.7 24.4 82 2.4 ESE 17 24 9 13 1013.4 - 0.0
19/09:33am 27.7 31.1 24.7 84 2.1 ESE 15 20 8 11 1013.3 - 0.0
19/09:30am 27.6 30.8 24.4 83 2.2 ESE 15 20 8 11 1013.3 - 0.0
19/09:00am 27.5 30.2 24.1 82 2.3 E 17 24 9 13 1013.0 1012.9 7.8
19/08:30am 27.1 30.5 24.7 87 1.7 ESE 15 22 8 12 1012.8 - 7.8
19/08:06am 26.2 30.8 24.8 92 1.0 SSE 9 11 5 6 1012.9 - 7.8
19/08:00am 25.7 29.9 24.1 91 1.1 S 9 11 5 6 1012.8 - 7.8
19/07:30am 25.8 30.7 24.4 92 1.0 SE 6 7 3 4 1012.4 - 7.8
19/07:10am 25.4 30.9 24.0 92 1.0 SSE 2 6 1 3 1012.3 - 7.8
19/07:00am 25.5 30.3 24.1 92 1.0 SSE 6 7 3 4 1012.1 - 7.8
19/06:30am 25.7 29.7 23.7 89 1.4 ESE 9 13 5 7 1011.8 - 7.8
19/06:00am 25.9 29.5 23.8 88 1.4 ESE 11 17 6 9 1011.4 1011.3 7.8
19/05:30am 26.1 29.1 23.4 85 1.8 ESE 13 19 7 10 1011.1 - 7.8
19/05:00am 26.2 29.4 23.7 86 1.7 ESE 13 22 7 12 1011.1 - 7.8
19/04:30am 26.1 29.4 23.8 87 1.6 ESE 13 22 7 12 1010.8 - 7.8
19/04:00am 26.2 29.4 23.7 86 1.7 ESE 13 19 7 10 1010.8 - 7.8
19/03:30am 26.4 29.3 23.9 86 1.7 ESE 15 24 8 13 1011.0 - 7.8
19/03:00am 26.3 29.6 23.8 86 1.7 E 13 22 7 12 1011.1 1011.0 7.8
19/02:32am 26.1 28.8 24.1 89 1.4 ESE 17 24 9 13 1011.0 - 7.8
19/02:30am 26.0 28.6 24.0 89 1.4 ESE 17 24 9 13 1011.0 - 7.8
19/02:00am 25.8 29.7 24.2 91 1.1 ESE 11 17 6 9 1011.1 - 7.8
19/01:30am 26.4 29.6 24.4 89 1.4 ESE 15 26 8 14 1011.5 - 6.6
19/01:19am 26.3 29.9 24.3 89 1.4 ESE 13 20 7 11 1011.5 - 6.6
19/01:00am 26.3 29.6 24.5 90 1.2 E 15 20 8 11 1011.6 - 6.6
19/12:30am 25.9 29.3 24.1 90 1.2 ESE 13 19 7 10 1011.8 - 6.6
19/12:00am 26.1 29.5 24.7 92 1.0 ESE 15 24 8 13 1012.0 1011.9 6.6
 
Date/Time
EST
Temp
°C
App
Temp
°C
Dew
Point
Rel
Hum
%
Delta-T
°C
Wind Press
QNH
hPa
Press
MSL
hPa
Rain
since 9 am
mm
Dir
 
Spd
km/h
Gust
km/h
Spd
kts
Gust
kts
18/11:30pm 25.9 29.5 24.3 91 1.1 E 13 20 7 11 1012.4 - 6.6
18/11:26pm 25.8 29.2 24.0 90 1.2 E 13 20 7 11 1012.4 - 6.6
18/11:00pm 26.1 29.1 24.7 92 1.0 ESE 17 22 9 12 1012.5 - 6.6
18/10:30pm 26.5 30.2 25.1 92 1.0 ESE 15 20 8 11 1012.4 - 6.6
18/10:00pm 26.3 29.3 25.3 94 0.7 ESE 19 24 10 13 1012.4 - 6.6
18/09:54pm 26.2 29.2 25.2 94 0.7 ESE 19 24 10 13 1012.4 - 6.6
18/09:33pm 26.1 29.5 25.2 95 0.6 SE 17 22 9 12 1012.3 - 6.6
18/09:30pm 26.1 29.5 25.2 95 0.6 SE 17 22 9 12 1012.2 - 6.6
18/09:06pm 26.0 29.4 25.3 96 0.5 SE 17 24 9 13 1011.5 - 6.6
18/09:00pm 26.0 29.4 25.3 96 0.5 SE 17 24 9 13 1011.6 1011.5 6.4
18/08:49pm 25.9 29.3 25.2 96 0.5 SE 17 20 9 11 1011.4 - 6.4
18/08:30pm 25.8 28.7 25.1 96 0.5 SE 19 32 10 17 1011.4 - 6.2
18/08:00pm 26.0 29.5 25.5 97 0.4 ESE 17 24 9 13 1010.9 - 5.8
18/07:30pm 25.9 29.5 25.0 95 0.6 SE 15 20 8 11 1010.5 - 3.6
18/07:00pm 26.5 29.4 24.5 89 1.4 SSE 17 22 9 12 1010.1 - 2.2
18/06:30pm 26.7 29.4 24.2 86 1.7 SSE 17 22 9 12 1009.5 - 2.2
18/06:04pm 27.2 30.1 24.5 85 1.9 SE 17 20 9 11 1009.6 - 2.2
18/06:00pm 27.3 30.2 24.4 84 2.0 SE 17 26 9 14 1009.6 - 2.2
18/05:55pm 27.3 29.8 24.4 84 2.0 SE 19 26 10 14 1009.5 - 2.2
18/05:30pm 27.5 30.7 24.9 86 1.8 SE 17 28 9 15 1009.3 - 2.2
18/05:05pm 27.2 29.9 25.0 88 1.5 SE 20 30 11 16 1009.1 - 2.2
18/05:00pm 27.2 29.9 24.8 87 1.7 SE 19 26 10 14 1009.1 - 2.2
18/04:51pm 27.5 30.4 24.5 84 2.1 SE 17 24 9 13 1009.1 - 2.2
18/04:30pm 28.0 30.2 24.2 80 2.6 SE 20 30 11 16 1008.6 - 2.2
18/04:00pm 28.7 30.7 24.5 78 2.9 SE 22 32 12 17 1009.0 - 2.2
18/03:55pm 28.9 31.5 24.9 79 2.8 SE 20 32 11 17 1008.8 - 2.2
18/03:35pm 28.2 30.8 24.6 81 2.5 SSE 19 28 10 15 1008.8 - 2.2
18/03:30pm 28.2 30.8 24.6 81 2.5 SSE 19 26 10 14 1008.8 - 2.2
18/03:00pm 28.3 30.8 24.7 81 2.5 SSE 20 32 11 17 1009.1 1009.0 2.2
18/02:30pm 28.3 30.6 24.5 80 2.6 SSE 20 32 11 17 1009.3 - 2.2
18/02:00pm 28.0 29.5 24.4 81 2.5 SE 24 33 13 18 1009.6 - 2.2
18/01:30pm 27.1 30.1 24.7 87 1.7 SSE 17 24 9 13 1010.2 - 2.2
18/01:11pm 26.9 30.8 24.9 89 1.4 SE 13 22 7 12 1010.5 - 2.2
18/01:00pm 27.0 31.5 25.2 90 1.3 SSE 11 13 6 7 1010.6 - 2.0
18/12:30pm 26.8 30.3 24.8 89 1.4 SE 15 20 8 11 1011.1 - 2.0
18/12:00pm 26.9 31.2 25.5 92 1.0 S 13 19 7 10 1011.6 1011.5 1.6
18/11:50am 26.6 31.1 25.2 92 1.0 S 11 17 6 9 1011.9 - 1.6
18/11:49am 26.7 31.3 25.3 92 1.0 S 11 17 6 9 1012.0 - 1.6
18/11:30am 26.1 30.6 25.2 95 0.6 S 11 17 6 9 1012.4 - 1.6
18/11:00am 26.2 29.9 25.2 94 0.7 SSE 15 26 8 14 1012.7 - 1.0
18/10:55am 26.2 30.1 24.8 92 1.0 SSE 13 19 7 10 1012.6 - 0.8
18/10:44am 26.4 30.9 25.2 93 0.8 SSE 11 15 6 8 1012.6 - 0.6
18/10:30am 26.1 30.1 25.1 94 0.7 SSE 13 20 7 11 1012.9 - 0.6
18/10:16am 25.8 29.3 24.2 91 1.1 SSE 13 20 7 11 1013.0 - 0.6
18/10:00am 26.1 29.7 24.3 90 1.2 SSE 13 17 7 9 1012.9 - 0.2
18/09:42am 25.8 30.3 24.6 93 0.8 SSE 9 13 5 7 1012.8 - 0.2
18/09:30am 25.3 29.6 24.3 94 0.7 SSE 9 15 5 8 1012.8 - 0.2
18/09:11am 25.4 29.3 24.2 93 0.8 SSE 11 13 6 7 1012.8 - 0.0
18/09:00am 25.3 29.5 24.1 93 0.8 SSE 9 13 5 7 1012.7 1012.6 11.0
18/08:49am 25.1 28.8 23.9 93 0.8 SSE 11 17 6 9 1012.6 - 11.0
18/08:30am 25.0 28.8 24.0 94 0.7 S 11 19 6 10 1012.6 - 11.0
18/08:00am 24.7 28.8 24.0 96 0.5 SSE 9 13 5 7 1012.4 - 11.0
18/07:56am 24.7 28.8 24.0 96 0.5 SSE 9 11 5 6 1012.4 - 11.0
18/07:54am 24.7 28.8 24.0 96 0.5 SSE 9 11 5 6 1012.3 - 11.0
18/07:30am 24.5 30.3 24.0 97 0.3 CALM 0 6 0 3 1012.1 - 11.0
18/07:16am 24.3 29.9 23.6 96 0.5 CALM 0 0 0 0 1011.9 - 11.0
18/07:00am 24.1 29.7 23.6 97 0.3 CALM 0 0 0 0 1011.7 - 11.0
18/06:37am 24.2 29.1 23.7 97 0.3 S 4 6 2 3 1011.3 - 11.0
18/06:30am 24.1 28.6 23.6 97 0.3 SSE 6 9 3 5 1011.2 - 11.0
18/06:01am 24.2 29.9 23.7 97 0.3 CALM 0 0 0 0 1010.9 - 10.2
18/06:00am 24.2 29.9 23.7 97 0.3 CALM 0 0 0 0 1010.9 1010.8 10.2
18/05:30am 24.2 29.9 23.7 97 0.3 CALM 0 0 0 0 1010.4 - 8.4
18/05:13am 24.2 29.9 23.7 97 0.3 CALM 0 0 0 0 1010.4 - 8.4
18/05:00am 24.3 30.0 23.8 97 0.3 CALM 0 0 0 0 1010.5 - 8.4
18/04:30am 24.3 29.3 23.8 97 0.3 SSW 4 7 2 4 1010.5 - 8.2
18/04:00am 24.3 29.8 24.0 98 0.2 ESE 2 13 1 7 1010.4 - 8.2
18/03:58am 24.2 30.0 23.9 98 0.2 CALM 0 11 0 6 1010.5 - 8.2
18/03:42am 24.3 28.4 24.0 98 0.2 SSE 9 15 5 8 1010.6 - 5.0
18/03:30am 24.3 28.3 23.8 97 0.3 ESE 9 17 5 9 1010.7 - 3.8
18/03:00am 24.5 27.1 24.0 97 0.3 SE 17 22 9 12 1010.7 1010.6 2.2
18/02:41am 24.6 28.9 23.7 95 0.6 SSE 7 11 4 6 1010.8 - 1.4
18/02:30am 24.6 28.9 23.7 95 0.6 SE 7 11 4 6 1010.9 - 1.4
18/02:05am 24.4 27.5 23.5 95 0.6 ESE 13 22 7 12 1011.0 - 1.4
18/02:00am 24.3 26.9 23.3 94 0.7 E 15 24 8 13 1011.0 - 1.4
18/01:37am 24.8 25.1 23.6 93 0.8 ESE 28 54 15 29 1011.2 - 1.4
18/01:36am 24.8 25.4 23.4 92 1.0 ESE 26 54 14 29 1011.2 - 1.4
18/01:30am 25.3 26.9 23.2 88 1.4 ESE 20 54 11 29 1011.3 - 1.2
18/01:00am 26.0 28.3 23.5 86 1.7 ESE 17 24 9 13 1011.6 - 0.2
18/12:30am 26.6 28.7 23.7 84 2.0 ESE 19 30 10 16 1011.8 - 0.2
18/12:28am 26.6 28.7 23.7 84 2.0 ESE 19 30 10 16 1011.9 - 0.2
18/12:00am 26.8 29.0 23.9 84 2.0 SE 19 24 10 13 1012.1 1012.0 0.2
 
Date/Time
EST
Temp
°C
App
Temp
°C
Dew
Point
Rel
Hum
%
Delta-T
°C
Wind Press
QNH
hPa
Press
MSL
hPa
Rain
since 9 am
mm
Dir
 
Spd
km/h
Gust
km/h
Spd
kts
Gust
kts
17/11:53pm 26.8 29.0 23.9 84 2.0 ESE 19 28 10 15 1012.2 - 0.2
17/11:30pm 26.6 29.4 23.7 84 2.0 SE 15 20 8 11 1012.4 - 0.2
17/11:00pm 26.6 28.9 23.5 83 2.1 ESE 17 24 9 13 1012.5 - 0.2
17/10:30pm 26.6 29.3 23.5 83 2.1 ESE 15 26 8 14 1012.7 - 0.2
17/10:00pm 26.5 29.2 23.4 83 2.1 ESE 15 24 8 13 1012.5 - 0.2
17/09:30pm 26.4 29.0 23.3 83 2.1 ESE 15 22 8 12 1012.5 - 0.2
17/09:00pm 26.5 28.4 23.4 83 2.1 ESE 19 26 10 14 1012.2 1012.1 0.2
17/08:30pm 25.7 29.4 23.2 86 1.7 SE 9 13 5 7 1011.9 - 0.2
17/08:00pm 25.4 29.3 22.9 86 1.7 SSE 7 9 4 5 1011.5 - 0.2
17/07:30pm 25.5 29.1 22.4 83 2.1 SE 7 11 4 6 1011.2 - 0.2
17/07:00pm 25.9 28.6 22.2 80 2.5 SE 11 17 6 9 1011.1 - 0.2
17/06:30pm 26.4 28.1 22.3 78 2.8 SE 17 24 9 13 1011.0 - 0.2
17/06:00pm 26.8 27.8 21.8 74 3.3 ESE 19 28 10 15 1010.8 1010.7 0.2
17/05:30pm 27.6 28.6 22.1 72 3.7 SE 20 32 11 17 1010.6 - 0.2
17/05:00pm 27.7 28.1 22.4 73 3.6 ESE 24 32 13 17 1010.6 - 0.2
17/04:30pm 28.3 28.1 22.1 69 4.2 SE 26 35 14 19 1010.3 - 0.2
17/04:00pm 28.2 28.6 22.4 71 3.9 ESE 24 41 13 22 1010.3 - 0.2
17/03:30pm 28.9 29.4 22.6 69 4.3 ESE 24 35 13 19 1010.2 - 0.2
17/03:00pm 29.2 30.0 22.4 66 4.6 ESE 22 41 12 22 1010.4 1010.3 0.2
17/02:30pm 28.7 28.9 22.0 67 4.5 E 24 35 13 19 1010.7 - 0.2
17/02:00pm 29.4 30.5 23.1 69 4.3 ESE 22 33 12 18 1011.2 - 0.2
17/01:30pm 28.2 29.1 22.7 72 3.7 ESE 22 35 12 19 1011.6 - 0.2
17/01:00pm 27.3 26.8 23.5 80 2.6 ESE 32 44 17 24 1012.0 - 0.2
17/12:30pm 28.5 28.9 23.2 73 3.6 ESE 26 43 14 23 1012.3 - 0.2
17/12:00pm 28.4 29.3 24.0 77 3.0 E 26 37 14 20 1012.7 1012.6 0.2
17/11:30am 28.2 29.5 24.0 78 2.9 E 24 44 13 24 1012.9 - 0.2
17/11:00am 27.9 30.5 24.9 84 2.1 E 20 33 11 18 1013.4 - 0.0
17/10:30am 28.5 29.1 23.4 74 3.5 ESE 26 41 14 22 1013.7 - 0.0
17/10:00am 28.0 29.7 23.4 76 3.2 ESE 20 32 11 17 1013.8 - 0.0
17/09:30am 27.1 28.5 22.9 78 2.9 ESE 20 33 11 18 1013.9 - 0.0
17/09:00am 27.3 28.9 22.9 77 3.0 ESE 19 28 10 15 1014.0 1013.9 7.0
17/08:30am 26.6 28.8 23.9 85 1.9 SE 19 24 10 13 1013.9 - 7.0
17/08:00am 25.4 29.7 23.6 90 1.2 S 7 11 4 6 1013.7 - 7.0
17/07:30am 24.1 28.2 22.9 93 0.8 SSW 6 7 3 4 1013.5 - 7.0
17/07:00am 23.4 27.1 22.2 93 0.8 SSW 6 9 3 5 1013.0 - 7.0
17/06:30am 24.1 27.1 22.7 92 0.9 SE 11 15 6 8 1012.6 - 7.0
17/06:00am 24.3 26.9 22.7 91 1.1 SE 13 19 7 10 1012.4 1012.3 7.0
17/05:30am 24.3 26.6 22.7 91 1.1 SE 15 22 8 12 1012.4 - 7.0
17/05:00am 23.7 28.8 22.7 94 0.7 CALM 0 0 0 0 1012.1 - 6.8
17/04:30am 23.8 28.9 22.6 93 0.8 CALM 0 0 0 0 1012.2 - 6.8
17/04:00am 23.7 28.8 22.7 94 0.7 CALM 0 0 0 0 1012.3 - 6.8
17/03:30am 24.0 29.3 23.1 95 0.6 CALM 0 0 0 0 1012.4 - 6.8
17/03:00am 24.1 26.6 23.2 95 0.6 SE 15 20 8 11 1012.5 1012.4 6.8
17/02:30am 23.9 28.9 22.5 92 0.9 CALM 0 0 0 0 1012.6 - 6.0
17/02:00am 24.2 27.4 22.3 89 1.3 SE 9 13 5 7 1012.8 - 6.0

Other Formats:

Comma delimited format used in spreadsheet applications
http://www.bom.gov.au/fwo/IDQ60801/IDQ60801.94186.axf

JavaScript Object Notation format (JSON) in row-major order
http://www.bom.gov.au/fwo/IDQ60801/IDQ60801.94186.json